createdAt,value
2022-11-16T00:02:14.021Z,5.13
2022-11-16T00:04:42.604Z,5.21
2022-11-16T00:07:11.462Z,5.11
2022-11-16T00:09:39.620Z,4.95
2022-11-16T00:12:09.614Z,5.15
2022-11-16T00:14:37.681Z,5.19
2022-11-16T00:17:05.928Z,5.22
2022-11-16T00:19:35.217Z,5.22
2022-11-16T00:22:03.240Z,5.12
2022-11-16T00:24:31.199Z,5.50
2022-11-16T00:26:59.155Z,5.30
2022-11-16T00:29:28.016Z,5.19
2022-11-16T00:31:56.210Z,5.00
2022-11-16T00:34:24.840Z,5.05
2022-11-16T00:36:54.310Z,5.02
2022-11-16T00:39:22.275Z,5.06
2022-11-16T00:41:50.621Z,4.84
2022-11-16T00:44:18.971Z,5.17
2022-11-16T00:46:46.941Z,5.05
2022-11-16T00:49:15.040Z,5.14
2022-11-16T00:51:43.463Z,5.01
2022-11-16T00:54:13.554Z,4.99
2022-11-16T00:56:41.757Z,4.96
2022-11-16T00:59:09.724Z,4.81
2022-11-16T01:01:37.872Z,4.78
2022-11-16T01:04:07.526Z,4.94
2022-11-16T01:06:37.071Z,4.92
2022-11-16T01:09:04.992Z,5.04
2022-11-16T01:11:51.633Z,4.97
2022-11-16T01:14:19.633Z,4.97
2022-11-16T01:16:50.772Z,4.68
2022-11-16T01:19:18.812Z,4.74
2022-11-16T01:21:46.723Z,4.81
2022-11-16T01:24:15.016Z,4.98
2022-11-16T01:26:44.395Z,4.90
2022-11-16T01:29:12.772Z,5.03
2022-11-16T01:31:44.959Z,4.96
2022-11-16T01:34:12.885Z,4.96
2022-11-16T01:36:40.988Z,5.02
2022-11-16T01:39:09.027Z,5.09
2022-11-16T01:41:58.540Z,4.99
2022-11-16T01:45:02.269Z,4.96
2022-11-16T01:47:31.713Z,5.12
2022-11-16T01:50:07.566Z,5.16
2022-11-16T01:52:40.421Z,5.07
2022-11-16T01:55:08.929Z,5.14
2022-11-16T01:57:58.621Z,4.95
2022-11-16T02:00:27.071Z,5.00
2022-11-16T02:03:07.974Z,4.92
2022-11-16T02:05:58.521Z,4.95
2022-11-16T02:08:58.066Z,5.21
2022-11-16T02:11:54.053Z,5.11
2022-11-16T02:14:42.968Z,4.97
2022-11-16T02:17:22.407Z,5.07
2022-11-16T02:20:14.177Z,4.98
2022-11-16T02:22:56.867Z,4.96
2022-11-16T02:25:35.691Z,4.98
2022-11-16T02:28:22.012Z,4.79
2022-11-16T02:30:55.541Z,4.90
2022-11-16T02:33:32.084Z,4.98
2022-11-16T02:36:04.057Z,4.78
2022-11-16T02:38:36.939Z,4.93
2022-11-16T02:41:10.546Z,5.13
2022-11-16T02:43:43.835Z,4.93
2022-11-16T02:46:27.044Z,5.05
2022-11-16T02:48:59.456Z,4.79
2022-11-16T02:51:29.315Z,4.94
2022-11-16T02:54:03.792Z,5.10
2022-11-16T02:56:44.109Z,5.02
2022-11-16T02:59:17.412Z,5.03
2022-11-16T03:01:50.797Z,5.13
2022-11-16T03:04:23.959Z,5.02
2022-11-16T03:06:52.806Z,5.01
2022-11-16T03:09:25.394Z,4.91
2022-11-16T03:12:02.827Z,4.89
2022-11-16T03:14:38.063Z,4.95
2022-11-16T03:17:12.558Z,4.85
2022-11-16T03:19:46.185Z,4.79
2022-11-16T03:22:18.599Z,5.02
2022-11-16T03:24:46.945Z,4.84
2022-11-16T03:27:26.153Z,4.87
2022-11-16T03:30:03.420Z,5.07
2022-11-16T03:32:39.394Z,4.79
2022-11-16T03:35:16.491Z,4.96
2022-11-16T03:37:47.307Z,4.73
2022-11-16T03:40:17.760Z,4.85
2022-11-16T03:42:49.474Z,4.76
2022-11-16T03:45:19.799Z,4.63
2022-11-16T03:47:49.229Z,4.78
2022-11-16T03:50:17.414Z,5.00
2022-11-16T03:52:45.327Z,5.04
2022-11-16T03:55:15.055Z,4.99
2022-11-16T03:57:44.759Z,4.95
2022-11-16T04:00:13.870Z,5.07
2022-11-16T04:02:43.136Z,5.00
2022-11-16T04:05:36.097Z,4.96
2022-11-16T04:08:23.339Z,5.08
2022-11-16T04:11:08.917Z,5.15
2022-11-16T04:13:55.366Z,5.08
2022-11-16T04:16:40.739Z,5.09
2022-11-16T04:19:27.365Z,5.01
2022-11-16T04:22:16.775Z,5.07
2022-11-16T04:24:48.860Z,5.20
2022-11-16T04:27:37.376Z,5.08
2022-11-16T04:30:07.194Z,5.07
2022-11-16T04:32:53.137Z,5.16
2022-11-16T04:35:38.666Z,5.22
2022-11-16T04:38:09.803Z,5.06
2022-11-16T04:40:38.308Z,5.39
2022-11-16T04:43:05.877Z,5.28
2022-11-16T04:45:54.802Z,5.37
2022-11-16T04:48:27.047Z,5.41
2022-11-16T04:50:56.071Z,5.35
2022-11-16T04:53:27.879Z,5.60
2022-11-16T04:56:03.766Z,5.47
2022-11-16T04:58:33.659Z,5.32
2022-11-16T05:01:01.785Z,5.25
2022-11-16T05:03:29.909Z,5.44
2022-11-16T05:05:57.828Z,5.53
2022-11-16T05:08:27.253Z,5.69
2022-11-16T05:10:56.422Z,5.62
2022-11-16T05:13:24.538Z,5.45
2022-11-16T05:15:53.909Z,5.50
2022-11-16T05:18:25.072Z,5.53
2022-11-16T05:21:01.496Z,5.54
2022-11-16T05:23:56.278Z,5.49
2022-11-16T05:26:27.227Z,5.62
2022-11-16T05:28:55.884Z,5.81
2022-11-16T05:31:23.882Z,5.73
2022-11-16T05:33:51.765Z,5.72
2022-11-16T05:36:20.592Z,5.63
2022-11-16T05:38:52.699Z,5.67
2022-11-16T05:41:26.397Z,5.75
2022-11-16T05:43:55.230Z,5.88
2022-11-16T05:46:24.619Z,5.91
2022-11-16T05:48:52.613Z,5.81
2022-11-16T05:51:20.665Z,5.88
2022-11-16T05:53:50.337Z,5.85
2022-11-16T05:56:22.498Z,6.00
2022-11-16T05:58:51.264Z,5.95
2022-11-16T06:01:19.442Z,5.97
2022-11-16T06:03:47.556Z,5.98
2022-11-16T06:06:16.236Z,6.06
2022-11-16T06:08:44.732Z,6.06
2022-11-16T06:11:18.098Z,5.95
2022-11-16T06:13:46.777Z,5.98
2022-11-16T06:16:15.190Z,6.06
2022-11-16T06:18:45.287Z,6.00
2022-11-16T06:21:17.015Z,6.04
2022-11-16T06:23:45.389Z,5.98
2022-11-16T06:26:13.676Z,6.17
2022-11-16T06:28:43.106Z,6.23
2022-11-16T06:31:10.994Z,6.03
2022-11-16T06:33:42.311Z,6.17
2022-11-16T06:36:21.028Z,6.16
2022-11-16T06:38:49.693Z,6.28
2022-11-16T06:41:17.969Z,6.13
2022-11-16T06:43:50.947Z,6.18
2022-11-16T06:46:22.064Z,6.16
2022-11-16T06:48:50.022Z,6.19
2022-11-16T06:51:18.956Z,6.14
2022-11-16T06:53:47.777Z,6.19
2022-11-16T06:56:18.477Z,6.27
2022-11-16T06:58:59.527Z,6.25
2022-11-16T07:01:29.279Z,6.32
2022-11-16T07:04:03.475Z,6.20
2022-11-16T07:06:33.299Z,6.10
2022-11-16T07:09:01.411Z,5.98
2022-11-16T07:11:32.086Z,6.19
2022-11-16T07:14:02.440Z,6.19
2022-11-16T07:16:31.118Z,6.27
2022-11-16T07:19:02.694Z,6.28
2022-11-16T07:21:33.165Z,6.39
2022-11-16T07:24:04.104Z,6.13
2022-11-16T07:26:33.536Z,6.19
2022-11-16T07:29:09.429Z,6.19
2022-11-16T07:31:41.516Z,6.07
2022-11-16T07:34:38.379Z,6.17
2022-11-16T07:37:09.874Z,6.19
2022-11-16T07:39:38.567Z,6.09
2022-11-16T07:42:13.599Z,6.02
2022-11-16T07:45:01.489Z,6.07
2022-11-16T07:47:29.533Z,6.08
2022-11-16T07:49:58.061Z,6.15
2022-11-16T07:52:28.615Z,6.19
2022-11-16T07:54:58.824Z,6.29
2022-11-16T07:57:28.825Z,6.21
2022-11-16T08:00:01.222Z,6.36
2022-11-16T08:02:43.261Z,6.39
2022-11-16T08:05:18.177Z,6.30
2022-11-16T08:07:46.861Z,6.09
2022-11-16T08:10:15.288Z,6.24
2022-11-16T08:12:43.610Z,6.46
2022-11-16T08:15:14.162Z,6.36
2022-11-16T08:17:42.505Z,6.30
2022-11-16T08:20:13.802Z,6.34
2022-11-16T08:22:42.866Z,6.30
2022-11-16T08:25:13.884Z,6.08
2022-11-16T08:27:45.740Z,6.30
2022-11-16T08:30:18.123Z,6.23
2022-11-16T08:32:46.629Z,6.32
2022-11-16T08:35:16.512Z,6.46
2022-11-16T08:37:46.061Z,6.37
2022-11-16T08:40:14.574Z,6.38
2022-11-16T08:42:44.150Z,6.23
2022-11-16T08:45:15.333Z,6.28
2022-11-16T08:47:43.570Z,6.53
2022-11-16T08:50:11.848Z,6.38
2022-11-16T08:52:39.952Z,6.25
2022-11-16T08:55:09.019Z,6.31
2022-11-16T08:57:37.856Z,6.49
2022-11-16T09:00:11.928Z,6.35
2022-11-16T09:02:41.324Z,6.14
2022-11-16T09:05:11.944Z,6.20
2022-11-16T09:07:40.704Z,6.11
2022-11-16T09:10:09.726Z,6.10
2022-11-16T09:12:38.046Z,6.42
2022-11-16T09:15:25.045Z,6.30
2022-11-16T09:17:56.206Z,6.32
2022-11-16T09:20:24.255Z,6.44
2022-11-16T09:22:52.188Z,6.32
2022-11-16T09:25:20.200Z,6.22
2022-11-16T09:27:48.207Z,6.30
2022-11-16T09:30:18.383Z,6.19
2022-11-16T09:32:49.077Z,6.12
2022-11-16T09:35:22.704Z,6.09
2022-11-16T09:37:50.671Z,6.25
2022-11-16T09:40:18.811Z,6.05
2022-11-16T09:43:02.056Z,6.10
2022-11-16T09:45:42.820Z,6.23
2022-11-16T09:48:13.511Z,6.26
2022-11-16T09:50:50.806Z,6.25
2022-11-16T09:53:28.116Z,6.39
2022-11-16T09:55:59.926Z,6.24
2022-11-16T09:58:32.813Z,6.07
2022-11-16T10:01:07.384Z,6.12
2022-11-16T10:03:41.319Z,6.41
2022-11-16T10:06:20.910Z,6.25
2022-11-16T10:08:51.292Z,6.09
2022-11-16T10:11:46.300Z,6.05
2022-11-16T10:15:01.696Z,6.18
2022-11-16T10:17:42.849Z,6.25
2022-11-16T10:20:31.366Z,6.07
2022-11-16T10:23:12.770Z,6.28
2022-11-16T10:25:44.607Z,6.36
2022-11-16T10:28:38.544Z,6.00
2022-11-16T10:31:14.772Z,6.35
2022-11-16T10:33:45.994Z,6.33
2022-11-16T10:36:15.723Z,6.27
2022-11-16T10:38:45.538Z,6.03
2022-11-16T10:41:21.288Z,6.14
2022-11-16T10:43:49.714Z,6.35
2022-11-16T10:46:22.935Z,6.05
2022-11-16T10:48:59.992Z,6.37
2022-11-16T10:51:28.040Z,6.30
2022-11-16T10:53:57.511Z,6.11
2022-11-16T10:56:30.094Z,5.88
2022-11-16T10:59:02.824Z,6.07
2022-11-16T11:01:34.348Z,6.30
2022-11-16T11:04:20.809Z,6.29
2022-11-16T11:06:51.375Z,6.24
2022-11-16T11:09:31.574Z,6.44
2022-11-16T11:12:33.079Z,6.43
2022-11-16T11:15:05.702Z,6.37
2022-11-16T11:17:35.762Z,6.46
2022-11-16T11:20:07.049Z,6.45
2022-11-16T11:22:42.700Z,6.51
2022-11-16T11:25:21.378Z,6.25
2022-11-16T11:27:53.684Z,6.46
2022-11-16T11:30:22.971Z,6.34
2022-11-16T11:32:54.065Z,6.43
2022-11-16T11:35:32.517Z,6.32
2022-11-16T11:38:08.035Z,6.44
2022-11-16T11:40:37.890Z,6.49
2022-11-16T11:43:23.375Z,6.65
2022-11-16T11:45:57.681Z,6.50
2022-11-16T11:48:47.778Z,6.57
2022-11-16T11:51:22.207Z,6.34
2022-11-16T11:53:56.804Z,6.35
2022-11-16T11:56:27.186Z,6.49
2022-11-16T11:58:56.459Z,6.39
2022-11-16T12:01:52.607Z,6.40
2022-11-16T12:04:42.560Z,6.42
2022-11-16T12:07:22.262Z,6.54
2022-11-16T12:09:59.807Z,6.52
2022-11-16T12:12:46.052Z,6.54
2022-11-16T12:15:36.632Z,6.65
2022-11-16T12:18:20.573Z,6.49
2022-11-16T12:20:59.911Z,6.51
2022-11-16T12:23:53.615Z,6.35
2022-11-16T12:26:29.995Z,6.53
2022-11-16T12:29:13.838Z,6.59
2022-11-16T12:31:55.856Z,6.45
2022-11-16T12:34:39.148Z,6.48
2022-11-16T12:37:17.091Z,6.70
2022-11-16T12:40:01.531Z,6.71
2022-11-16T12:42:41.645Z,6.66
2022-11-16T12:45:29.026Z,6.65
2022-11-16T12:48:28.509Z,6.66
2022-11-16T12:51:00.710Z,6.67
2022-11-16T12:53:45.172Z,6.68
2022-11-16T12:56:23.963Z,6.68
2022-11-16T12:59:07.819Z,6.78
2022-11-16T13:01:43.127Z,6.60
2022-11-16T13:04:16.215Z,6.80
2022-11-16T13:06:51.863Z,6.84
2022-11-16T13:09:24.485Z,6.74
2022-11-16T13:11:55.641Z,6.71
2022-11-16T13:14:27.272Z,6.56
2022-11-16T13:16:58.497Z,6.56
2022-11-16T13:19:27.365Z,6.77
2022-11-16T13:22:03.103Z,6.71
2022-11-16T13:24:45.054Z,6.71
2022-11-16T13:27:31.823Z,6.77
2022-11-16T13:30:06.622Z,6.77
2022-11-16T13:32:48.238Z,6.68
2022-11-16T13:35:18.466Z,6.79
2022-11-16T13:37:48.337Z,6.62
2022-11-16T13:40:25.428Z,6.63
2022-11-16T13:43:04.052Z,6.76
2022-11-16T13:45:35.884Z,6.81
2022-11-16T13:48:23.443Z,6.58
2022-11-16T13:50:55.059Z,6.70
2022-11-16T13:54:37.786Z,6.83
2022-11-16T13:56:16.005Z,6.76
2022-11-16T13:58:47.586Z,6.90
2022-11-16T14:01:16.370Z,6.87
2022-11-16T14:03:46.716Z,6.79
2022-11-16T14:06:57.277Z,6.54
2022-11-16T14:09:49.185Z,6.69
2022-11-16T14:12:59.595Z,6.76
2022-11-16T14:15:37.613Z,6.70
2022-11-16T14:18:33.484Z,6.82
2022-11-16T14:21:14.723Z,6.67
2022-11-16T14:24:08.809Z,6.64
2022-11-16T14:26:48.462Z,6.64
2022-11-16T14:29:40.057Z,6.71
2022-11-16T14:32:22.706Z,6.84
2022-11-16T14:34:52.867Z,6.73
2022-11-16T14:37:35.786Z,6.69
2022-11-16T14:40:08.015Z,6.80
2022-11-16T14:43:09.435Z,6.75
2022-11-16T14:45:38.296Z,6.73
2022-11-16T14:48:14.244Z,6.56
2022-11-16T14:50:46.341Z,6.54
2022-11-16T14:53:19.123Z,6.54
2022-11-16T14:55:47.244Z,6.61
2022-11-16T14:58:22.263Z,6.78
2022-11-16T15:00:56.094Z,6.70
2022-11-16T15:03:26.573Z,6.81
2022-11-16T15:05:59.317Z,6.55
2022-11-16T15:08:34.309Z,6.70
2022-11-16T15:11:02.640Z,6.95
2022-11-16T15:13:30.701Z,6.46
2022-11-16T15:16:15.561Z,6.78
2022-11-16T15:18:56.121Z,6.48
2022-11-16T15:21:24.712Z,6.57
2022-11-16T15:24:23.561Z,6.62
2022-11-16T15:26:42.414Z,6.58
2022-11-16T15:29:16.419Z,6.45
2022-11-16T15:31:44.659Z,6.49
2022-11-16T15:34:13.861Z,6.42
2022-11-16T15:36:42.352Z,6.72
2022-11-16T15:39:16.970Z,6.54
2022-11-16T15:41:45.967Z,6.72
2022-11-16T15:44:16.585Z,6.67
2022-11-16T15:46:48.276Z,6.72
2022-11-16T15:49:27.558Z,6.76
2022-11-16T15:51:55.615Z,6.46
2022-11-16T15:54:26.622Z,6.51
2022-11-16T15:56:57.116Z,6.51
2022-11-16T15:59:29.083Z,6.56
2022-11-16T16:01:57.528Z,6.50
2022-11-16T16:04:27.061Z,6.58
2022-11-16T16:06:56.666Z,6.56
2022-11-16T16:09:28.429Z,6.44
2022-11-16T16:11:58.452Z,6.49
2022-11-16T16:14:29.695Z,6.45
2022-11-16T16:16:59.272Z,6.47
2022-11-16T16:19:34.538Z,6.48
2022-11-16T16:22:03.642Z,6.60
2022-11-16T16:24:42.007Z,6.49
2022-11-16T16:27:12.404Z,6.43
2022-11-16T16:29:42.432Z,6.65
2022-11-16T16:32:23.901Z,6.71
2022-11-16T16:34:52.571Z,6.82
2022-11-16T16:37:21.055Z,6.51
2022-11-16T16:39:51.476Z,6.45
2022-11-16T16:42:19.951Z,6.55
2022-11-16T16:44:49.174Z,6.66
2022-11-16T16:47:20.559Z,6.72
2022-11-16T16:49:48.693Z,6.59
2022-11-16T16:52:17.331Z,6.54
2022-11-16T16:54:45.377Z,6.85
2022-11-16T16:57:16.640Z,6.67
2022-11-16T16:59:48.427Z,6.46
2022-11-16T17:02:22.455Z,6.61
2022-11-16T17:04:50.423Z,6.56
2022-11-16T17:07:18.454Z,6.44
2022-11-16T17:09:46.568Z,6.38
2022-11-16T17:12:16.044Z,6.63
2022-11-16T17:14:51.223Z,6.63
2022-11-16T17:17:19.529Z,6.62
2022-11-16T17:19:48.283Z,6.53
2022-11-16T17:22:16.285Z,6.41
2022-11-16T17:24:46.044Z,6.46
2022-11-16T17:27:15.479Z,6.37
2022-11-16T17:29:46.149Z,6.41
2022-11-16T17:32:14.237Z,6.37
2022-11-16T17:34:42.267Z,6.45
2022-11-16T17:37:10.241Z,6.48
2022-11-16T17:39:38.249Z,6.25
2022-11-16T17:42:06.195Z,6.28
2022-11-16T17:44:35.556Z,6.34
2022-11-16T17:47:03.552Z,6.31
2022-11-16T17:49:31.822Z,6.34
2022-11-16T17:51:59.888Z,6.52
2022-11-16T17:54:27.895Z,6.57
2022-11-16T17:56:55.983Z,6.16
2022-11-16T17:59:29.256Z,6.02
2022-11-16T18:01:59.268Z,6.14
2022-11-16T18:04:27.266Z,6.29
2022-11-16T18:06:59.552Z,6.18
2022-11-16T18:09:27.649Z,6.23
2022-11-16T18:11:55.854Z,6.18
2022-11-16T18:14:23.946Z,6.28
2022-11-16T18:16:52.362Z,6.17
2022-11-16T18:19:21.775Z,6.20
2022-11-16T18:21:49.957Z,6.25
2022-11-16T18:24:17.995Z,6.26
2022-11-16T18:26:46.067Z,6.12
2022-11-16T18:29:15.994Z,6.17
2022-11-16T18:31:44.264Z,6.06
2022-11-16T18:34:13.473Z,6.20
2022-11-16T18:36:42.927Z,5.92
2022-11-16T18:39:10.954Z,5.93
2022-11-16T18:41:48.599Z,6.19
2022-11-16T18:44:19.835Z,6.25
2022-11-16T18:46:50.325Z,6.48
2022-11-16T18:49:18.252Z,6.18
2022-11-16T18:51:47.857Z,6.29
2022-11-16T18:54:15.828Z,6.14
2022-11-16T18:56:43.792Z,6.09
2022-11-16T18:59:11.770Z,6.02
2022-11-16T19:01:39.832Z,6.18
2022-11-16T19:04:08.740Z,6.12
2022-11-16T19:06:36.857Z,6.31
2022-11-16T19:09:09.588Z,5.95
2022-11-16T19:11:37.822Z,6.01
2022-11-16T19:14:07.606Z,5.98
2022-11-16T19:16:36.652Z,5.90
2022-11-16T19:19:05.252Z,5.98
2022-11-16T19:21:33.364Z,6.03
2022-11-16T19:24:01.361Z,6.20
2022-11-16T19:26:30.827Z,6.15
2022-11-16T19:29:04.056Z,5.84
2022-11-16T19:31:33.350Z,6.20
2022-11-16T19:34:03.024Z,6.14
2022-11-16T19:36:32.372Z,6.29
2022-11-16T19:39:00.416Z,6.24
2022-11-16T19:41:30.239Z,6.03
2022-11-16T19:44:02.647Z,6.20
2022-11-16T19:46:32.724Z,6.12
2022-11-16T19:49:01.385Z,5.93
2022-11-16T19:51:31.319Z,5.78
2022-11-16T19:54:00.492Z,5.96
2022-11-16T19:56:30.085Z,6.02
2022-11-16T19:58:58.502Z,6.14
2022-11-16T20:01:29.388Z,5.83
2022-11-16T20:04:00.451Z,5.73
2022-11-16T20:06:30.348Z,5.82
2022-11-16T20:09:00.703Z,5.97
2022-11-16T20:11:33.651Z,6.05
2022-11-16T20:14:02.729Z,5.90
2022-11-16T20:16:38.135Z,5.83
2022-11-16T20:19:07.312Z,5.75
2022-11-16T20:21:37.274Z,5.51
2022-11-16T20:24:07.496Z,5.76
2022-11-16T20:26:38.574Z,5.66
2022-11-16T20:29:06.700Z,5.57
2022-11-16T20:31:35.354Z,5.64
2022-11-16T20:34:05.787Z,5.55
2022-11-16T20:36:35.858Z,5.39
2022-11-16T20:39:04.181Z,5.61
2022-11-16T20:41:36.646Z,5.55
2022-11-16T20:44:10.620Z,5.52
2022-11-16T20:46:43.831Z,5.53
2022-11-16T20:49:12.064Z,5.64
2022-11-16T20:51:40.587Z,5.62
2022-11-16T20:54:08.825Z,5.60
2022-11-16T20:56:38.294Z,5.64
2022-11-16T20:59:06.358Z,5.34
2022-11-16T21:01:34.721Z,5.41
2022-11-16T21:04:04.808Z,5.46
2022-11-16T21:06:33.746Z,5.30
2022-11-16T21:09:02.232Z,5.41
2022-11-16T21:11:51.711Z,5.48
2022-11-16T21:14:20.690Z,5.29
2022-11-16T21:16:48.821Z,5.47
2022-11-16T21:19:16.950Z,5.44
2022-11-16T21:21:45.067Z,5.36
2022-11-16T21:24:13.260Z,5.46
2022-11-16T21:26:41.224Z,5.25
2022-11-16T21:29:09.295Z,5.22
2022-11-16T21:31:38.931Z,5.23
2022-11-16T21:34:07.677Z,5.21
2022-11-16T21:36:36.131Z,5.23
2022-11-16T21:39:04.551Z,5.14
2022-11-16T21:41:32.668Z,5.36
2022-11-16T21:44:00.838Z,5.12
2022-11-16T21:46:29.223Z,5.09
2022-11-16T21:49:01.159Z,5.08
2022-11-16T21:51:31.720Z,4.90
2022-11-16T21:53:59.689Z,4.84
2022-11-16T21:56:27.810Z,4.86
2022-11-16T21:58:55.854Z,4.98
2022-11-16T22:01:24.934Z,4.90
2022-11-16T22:04:06.930Z,4.94
2022-11-16T22:06:54.251Z,5.08
2022-11-16T22:09:23.615Z,5.11
2022-11-16T22:11:51.552Z,5.12
2022-11-16T22:14:19.534Z,5.00
2022-11-16T22:16:47.514Z,5.09
2022-11-16T22:19:15.519Z,5.24
2022-11-16T22:21:44.796Z,4.97
2022-11-16T22:24:12.709Z,5.21
2022-11-16T22:26:41.049Z,4.95
2022-11-16T22:29:09.089Z,5.02
2022-11-16T22:31:37.097Z,5.00
2022-11-16T22:34:05.270Z,5.02
2022-11-16T22:36:33.463Z,4.91
2022-11-16T22:39:03.072Z,4.80
2022-11-16T22:41:32.110Z,4.92
2022-11-16T22:44:00.328Z,5.02
2022-11-16T22:46:28.276Z,4.80
2022-11-16T22:48:56.676Z,4.67
2022-11-16T22:51:26.052Z,4.66
2022-11-16T22:53:55.414Z,4.62
2022-11-16T22:56:25.073Z,4.78
2022-11-16T22:58:53.649Z,4.78
2022-11-16T23:01:22.133Z,4.79
2022-11-16T23:03:50.499Z,4.53
2022-11-16T23:06:18.660Z,4.55
2022-11-16T23:08:46.770Z,4.48
2022-11-16T23:11:34.678Z,4.51
2022-11-16T23:14:23.708Z,4.35
2022-11-16T23:16:51.978Z,4.32
2022-11-16T23:19:50.038Z,4.32
2022-11-16T23:22:37.252Z,4.56
2022-11-16T23:25:25.312Z,4.37
2022-11-16T23:27:57.907Z,4.31
2022-11-16T23:30:27.850Z,4.20
2022-11-16T23:32:55.960Z,3.99
2022-11-16T23:35:24.445Z,3.98
2022-11-16T23:37:53.831Z,3.95
2022-11-16T23:40:23.185Z,3.97
2022-11-16T23:43:09.997Z,4.12
2022-11-16T23:45:39.985Z,4.08
2022-11-16T23:48:08.690Z,4.17
2022-11-16T23:50:37.534Z,4.15
2022-11-16T23:53:06.498Z,4.19
2022-11-16T23:55:35.590Z,4.22
2022-11-16T23:58:03.536Z,4.09
